EGMC METAR and TAF | Updated Today

EGMC METAR

Southend Airport

Observation time: 21 min. ago

EGMC 251850Z 25012KT 9999 FEW028 17/10 Q1014

Need help? Read our tutorial on how to read METARs or read the parsed version below.

Southend Airport (EGMC) METAR

  • Weather conditions on Wed, 25 May 2022 18:50:00 +0000 (21 min. ago):
  • Present conditions: Dry
  • Clouds: A few at 853 meters
  • Visibility: Greater than 10 km
  • Wind: 250 degrees at 12 knots
  • Temperature: 17 celsius
  • Dew point: 10 celsius
  • Pressure: 1014 millibars
  • Remarks: None


Useful to know...

EGMC TAF

Southend Airport

TAF EGMC 251655Z 2518/2603 25009KT 9999 SCT030
Observation time: 2:16 hr. ago
Need help? Read our tutorial on how to read TAFs or read the parsed version below.

Parsed version of TAF for Southend Airport (EGMC)

  • From 25 May at 18:00 UTC, to day 26 of the month at 03:00 UTC
  • Clouds: Scattered at 914 meters
  • Visibility: Greater than 10 km
  • Wind: 250 degrees at 9